Fort Pierce, FL

11:39 EST le 01 février 2015 (GMT -0500)
Kirchman South | Change Station
CLOSE
Current Station
Stations météorologiques personnelles
Location: Ft. Pierce, FL
Altitude: 18 ft
Stations météo à proximité

Alt. 18 ft 27.46 °N, 80.49 °W | Updated 4 minutes ago

Couvert
Couvert
69.3 ° F
Paraît 69.3 ° F
N
6.0
Vent Variable Vent de SSO
Gusts 14.0 mph

Aujourd'hui
Haut(e) -- | Bas -- ° F
--% Risque de précip.
Hier
Haut(e) -- | Bas -- ° F
Precip. -- pouce
7:08 AM 6:02 PM
Lune gibbeuse croissante, 95% visible
Pression 30.27 pouce
Visibilité 10.0 Miles terrestres
Nuages Nuageux 5000 ft
Point de rosée 57 ° F
Humidité 64%
Précipitations 0.00 pouce
Profondeur de la couche neigeuse Non disponible.
UV 1.1 sur 12
Pollen 8.30 sur 12
Qualité de l'air Non disponible.
Flu Activity Non disponible.
METAR KFPR 011553Z 12013KT 10SM BKN050 21/11 A3026 RMK AO2 SLP248 T02060106

More Conditions Fewer Conditions

Pression 30.27 pouce
Visibilité 10.0 Miles terrestres
Nuages Nuageux 5000 ft
Point de rosée 57 ° F
Humidité 64%
Précipitations 0.00 pouce
Profondeur de la couche neigeuse Non disponible.
UV 1.1 sur 12
Pollen 8.30 sur 12
Qualité de l'air Non disponible.
Flu Activity Non disponible.
METAR KFPR 011553Z 12013KT 10SM BKN050 21/11 A3026 RMK AO2 SLP248 T02060106

More Conditions Fewer Conditions

10-Day Weather Forecast

Almanac

Astronomie

Feb. 01, 2015 Lever Coucher
Temps réel
Crépuscule civil
Crépuscule nautique
Crépuscule astronomique
Lune
Durée de lumière visible
Longueur du jour
Tomorrow will be .
, % of the Moon is Illuminated

Extrêmes aujourd'hui

State Highs State Lows

Community

WunderPhotos

Upload Photos

1,792,362 Photos téléchargées !

WunderBlogs® & News

Nearby

Qualité de l'air

  Qualité de l'air Indice de la qualité de l'air Polluant
Not available.

Épaisseur de neige

Station Depth Altitude

Activité sismique

Ville Distance Mag. Time & Date
Minimum magnitude displayed is 2.5.

Températures des eaux côtières

Lieu Température

Stations météo à proximité